Time;durP1;ratioP1;P1;durP2;ratioP2;P2;SDS_P1;SDS_P2;PMS_P1;PMS_P2;Temp;Humidity;BMP_temperature;BMP_pressure;BME280_temperature;BME280_humidity;BME280_pressure;Samples;Min_cycle;Max_cycle;Signal;HPM_P1;HPM_P2
2022/10/14 00:01:23;;;;;;;16.77;10.17;;;;;;;13.81;90.34;100464.41;5018848;28;20682;-82
2022/10/14 00:03:50;;;;;;;11.60;10.70;;;;;;;13.88;90.54;100450.19;5018202;28;20261;-83
2022/10/14 00:06:19;;;;;;;11.23;10.20;;;;;;;13.86;90.35;100452.84;5018525;28;20230;-81
2022/10/14 00:08:46;;;;;;;10.97;9.87;;;;;;;13.84;90.35;100446.78;5018299;28;20205;-83
2022/10/14 00:11:16;;;;;;;12.50;11.40;;;;;;;13.86;90.29;100452.00;5018365;28;20212;-83
2022/10/14 00:13:42;;;;;;;13.50;11.87;;;;;;;13.86;89.80;100465.13;5018590;28;20233;-83
2022/10/14 00:16:18;;;;;;;13.37;11.97;;;;;;;13.94;90.73;100451.75;5019055;28;20209;-82
2022/10/14 00:18:47;;;;;;;15.13;13.80;;;;;;;13.88;90.19;100450.19;5019248;28;20213;-83
2022/10/14 00:21:14;;;;;;;11.43;9.87;;;;;;;13.90;90.44;100451.00;5018775;28;20215;-83
2022/10/14 00:23:40;;;;;;;14.97;13.60;;;;;;;13.75;90.75;100444.47;5018326;28;20235;-83
2022/10/14 00:26:07;;;;;;;13.63;12.20;;;;;;;13.83;91.12;100431.09;5018429;28;20227;-82
2022/10/14 00:28:35;;;;;;;12.67;11.47;;;;;;;13.87;91.39;100415.22;5018484;28;20264;-83
2022/10/14 00:31:02;;;;;;;19.43;12.53;;;;;;;13.86;91.09;100428.38;5017849;28;20586;-82
2022/10/14 00:33:29;;;;;;;12.30;11.17;;;;;;;13.81;90.60;100428.50;5018548;28;20222;-83
2022/10/14 00:35:58;;;;;;;13.20;12.00;;;;;;;13.81;89.97;100430.28;5018517;28;20206;-82
2022/10/14 00:38:25;;;;;;;12.30;11.20;;;;;;;13.83;90.74;100433.72;5019097;28;20240;-81
2022/10/14 00:40:53;;;;;;;15.97;14.37;;;;;;;13.78;90.37;100431.25;5018133;28;20572;-83
2022/10/14 00:43:20;;;;;;;15.70;14.10;;;;;;;13.80;90.77;100432.06;5018272;28;20243;-83
2022/10/14 00:45:47;;;;;;;15.87;14.20;;;;;;;13.66;91.14;100423.78;5018345;28;20232;-82
2022/10/14 00:48:14;;;;;;;18.77;12.90;;;;;;;13.69;91.70;100421.03;5018416;28;20213;-81
2022/10/14 00:50:44;;;;;;;13.23;11.87;;;;;;;13.67;91.55;100409.75;5018159;28;20212;-82
2022/10/14 00:53:13;;;;;;;11.50;10.40;;;;;;;13.72;93.14;100386.84;5018464;28;20233;-82
2022/10/14 00:55:42;;;;;;;13.30;12.00;;;;;;;13.71;92.17;100390.38;5019067;28;20209;-82
2022/10/14 00:58:09;;;;;;;17.57;15.70;;;;;;;13.68;92.27;100387.88;5018608;28;20213;-82
2022/10/14 01:00:37;;;;;;;14.93;13.43;;;;;;;13.69;92.73;100379.06;5018794;28;20213;-82
2022/10/14 01:03:08;;;;;;;19.30;14.90;;;;;;;13.61;92.67;100384.56;5017653;28;20244;-80
2022/10/14 01:05:40;;;;;;;15.37;11.00;;;;;;;13.61;93.09;100376.69;5016012;28;20233;-81
2022/10/14 01:08:13;;;;;;;13.13;11.93;;;;;;;13.58;93.74;100360.22;5016487;28;20223;-80
2022/10/14 01:10:47;;;;;;;14.97;13.57;;;;;;;13.62;92.99;100361.84;5015950;28;20243;-81
2022/10/14 01:13:24;;;;;;;13.80;12.60;;;;;;;13.61;93.22;100367.97;5016237;28;20224;-82
2022/10/14 01:15:56;;;;;;;14.33;13.03;;;;;;;13.59;92.93;100365.41;5015722;28;20211;-80
2022/10/14 01:18:37;;;;;;;16.33;13.57;;;;;;;13.61;93.20;100375.84;5017189;28;20212;-80
2022/10/14 01:21:15;;;;;;;14.03;11.93;;;;;;;13.62;93.05;100375.81;5019547;28;20212;-82
2022/10/14 01:24:41;;;;;;;12.57;11.43;;;;;;;13.66;93.19;100363.47;5019739;28;20250;-79
2022/10/14 01:27:19;;;;;;;13.87;12.57;;;;;;;13.65;93.35;100367.81;4944378;28;20245;-82
2022/10/14 01:30:01;;;;;;;14.97;13.53;;;;;;;13.67;93.62;100360.75;4978131;28;20215;-79
2022/10/14 01:32:31;;;;;;;14.33;13.03;;;;;;;13.67;93.82;100352.03;5011073;28;20232;-79
2022/10/14 01:35:06;;;;;;;15.43;12.90;;;;;;;13.69;93.87;100352.84;5019196;28;20227;-79
2022/10/14 01:37:37;;;;;;;13.83;12.60;;;;;;;13.69;93.52;100358.94;5020170;28;20217;-79
2022/10/14 01:40:12;;;;;;;13.90;12.67;;;;;;;13.72;93.19;100362.41;5019025;28;20196;-79
2022/10/14 01:42:41;;;;;;;13.33;12.03;;;;;;;13.70;93.46;100370.31;5019261;28;20237;-80
2022/10/14 01:45:13;;;;;;;14.30;12.73;;;;;;;13.69;93.27;100376.44;5018908;28;20205;-79
2022/10/14 01:47:41;;;;;;;15.43;12.33;;;;;;;13.68;93.79;100361.63;5018607;28;20233;-79
2022/10/14 01:50:11;;;;;;;13.20;11.97;;;;;;;13.72;93.63;100365.88;5018818;28;20592;-81
2022/10/14 01:52:42;;;;;;;15.50;12.73;;;;;;;13.66;93.62;100366.94;5019465;28;20259;-80
2022/10/14 01:55:15;;;;;;;15.23;13.73;;;;;;;13.64;93.72;100365.28;5018663;28;20231;-80
2022/10/14 01:57:43;;;;;;;14.20;12.93;;;;;;;13.67;93.74;100363.38;5019181;28;20204;-78
2022/10/14 02:00:13;;;;;;;15.70;14.17;;;;;;;13.69;94.11;100361.56;5018757;28;20213;-80
2022/10/14 02:02:42;;;;;;;15.83;12.80;;;;;;;13.70;93.83;100352.81;5018360;28;20324;-83
2022/10/14 02:05:17;;;;;;;13.33;12.07;;;;;;;13.74;94.27;100345.69;5018558;28;20210;-82
2022/10/14 02:07:48;;;;;;;13.47;11.37;;;;;;;13.75;94.20;100349.16;5018839;28;20213;-81
2022/10/14 02:10:28;;;;;;;12.33;11.13;;;;;;;13.74;94.21;100350.94;5018193;28;20594;-81
2022/10/14 02:13:07;;;;;;;12.77;11.43;;;;;;;13.75;93.97;100349.16;5018633;28;20244;-79
2022/10/14 02:15:47;;;;;;;16.97;13.83;;;;;;;13.75;93.94;100349.16;5018705;28;20212;-81
2022/10/14 02:18:21;;;;;;;14.53;13.13;;;;;;;13.78;93.59;100357.78;5018597;28;20209;-81
2022/10/14 02:20:54;;;;;;;16.07;14.43;;;;;;;13.72;94.07;100349.28;5018345;28;20217;-82
2022/10/14 02:23:25;;;;;;;14.73;13.17;;;;;;;13.72;94.28;100350.13;5018135;28;20240;-82
2022/10/14 02:25:53;;;;;;;15.53;13.47;;;;;;;13.63;94.46;100332.91;5017965;28;20250;-83
2022/10/14 02:28:25;;;;;;;16.27;14.83;;;;;;;13.57;94.93;100327.88;5017764;28;20231;-81
2022/10/14 02:30:57;;;;;;;15.83;14.43;;;;;;;13.68;95.52;100314.44;5016673;28;20224;-82
2022/10/14 02:33:26;;;;;;;15.57;14.10;;;;;;;13.76;95.21;100317.63;5017890;28;20247;-82
2022/10/14 02:35:54;;;;;;;14.83;13.53;;;;;;;13.77;94.86;100321.97;5018133;28;20213;-81
2022/10/14 02:38:21;;;;;;;16.70;15.20;;;;;;;13.76;94.71;100332.53;5017981;28;20208;-80
2022/10/14 02:40:49;;;;;;;18.67;13.30;;;;;;;13.80;94.45;100329.75;5017501;28;20205;-79
2022/10/14 02:43:17;;;;;;;14.47;12.80;;;;;;;13.80;94.58;100329.75;5017333;28;20248;-82
2022/10/14 02:45:44;;;;;;;13.40;11.00;;;;;;;13.81;94.68;100327.97;5017475;28;20610;-81
2022/10/14 02:48:12;;;;;;;12.90;11.57;;;;;;;13.74;94.66;100327.31;5017309;28;20215;-82
2022/10/14 02:50:40;;;;;;;19.67;11.57;;;;;;;13.75;95.19;100325.56;5016767;28;20203;-81
2022/10/14 02:53:06;;;;;;;14.47;13.00;;;;;;;13.81;94.16;100339.31;5018750;28;20240;-82
2022/10/14 02:55:32;;;;;;;14.60;13.20;;;;;;;13.76;94.67;100333.38;5018258;28;20214;-81
2022/10/14 02:57:59;;;;;;;14.53;13.27;;;;;;;13.79;94.38;100325.38;5018694;28;20205;-82
2022/10/14 03:00:26;;;;;;;16.13;14.70;;;;;;;13.81;94.70;100325.34;5017625;28;20240;-82
2022/10/14 03:02:52;;;;;;;13.33;12.03;;;;;;;13.84;94.16;100333.13;5018002;28;20237;-82
2022/10/14 03:05:20;;;;;;;14.40;13.10;;;;;;;13.82;94.35;100327.06;5018033;28;20215;-82
2022/10/14 03:07:46;;;;;;;15.93;14.63;;;;;;;13.78;94.16;100333.34;5017802;28;20620;-81
2022/10/14 03:10:13;;;;;;;13.20;11.90;;;;;;;13.81;94.30;100326.19;5017867;28;20212;-82
2022/10/14 03:12:39;;;;;;;14.23;11.03;;;;;;;13.76;94.17;100322.88;5017647;28;20236;-80
2022/10/14 03:15:07;;;;;;;11.60;10.17;;;;;;;13.76;94.88;100329.91;5018227;28;20209;-81
2022/10/14 03:17:33;;;;;;;12.53;11.33;;;;;;;13.75;94.61;100330.81;5017795;28;20214;-82
2022/10/14 03:20:00;;;;;;;13.03;11.70;;;;;;;13.71;94.72;100324.78;5016981;28;20214;-82
2022/10/14 03:22:28;;;;;;;14.27;10.93;;;;;;;13.75;95.28;100321.16;5016995;28;20272;-81
2022/10/14 03:24:54;;;;;;;12.10;11.00;;;;;;;13.78;95.25;100307.94;5017508;28;20214;-80
2022/10/14 03:27:21;;;;;;;11.37;10.13;;;;;;;13.70;95.71;100302.13;5018249;28;20242;-82
2022/10/14 03:29:47;;;;;;;12.77;11.60;;;;;;;13.72;95.50;100304.69;5018003;28;20209;-81
2022/10/14 03:32:14;;;;;;;11.77;10.77;;;;;;;13.70;95.22;100305.59;5016754;28;20629;-79
2022/10/14 03:34:40;;;;;;;13.70;10.33;;;;;;;13.74;95.58;100306.34;5017643;28;20568;-83
2022/10/14 03:37:07;;;;;;;12.80;11.50;;;;;;;13.73;95.56;100302.00;5017411;28;20213;-81
2022/10/14 03:39:34;;;;;;;15.60;11.67;;;;;;;13.78;95.06;100313.19;5017326;28;20241;-81
2022/10/14 03:42:01;;;;;;;13.50;12.10;;;;;;;13.80;95.19;100311.38;5016863;28;20230;-84
2022/10/14 03:44:29;;;;;;;13.23;11.90;;;;;;;13.79;95.43;100303.56;5016999;28;20208;-81
2022/10/14 03:46:56;;;;;;;14.37;13.17;;;;;;;13.80;95.07;100314.00;5017237;28;20269;-83
2022/10/14 03:49:22;;;;;;;15.23;13.97;;;;;;;13.78;94.87;100313.19;5017598;28;20233;-80
2022/10/14 03:51:49;;;;;;;14.70;13.20;;;;;;;13.81;94.73;100314.84;5017254;28;20208;-83
2022/10/14 03:54:15;;;;;;;16.33;14.80;;;;;;;13.82;94.90;100313.94;5017260;28;20210;-83
2022/10/14 03:56:43;;;;;;;17.47;15.87;;;;;;;13.80;94.80;100321.88;5017141;28;20199;-79
2022/10/14 03:59:10;;;;;;;15.80;14.50;;;;;;;13.78;94.16;100321.06;5017614;28;20227;-83
2022/10/14 04:01:36;;;;;;;15.97;14.30;;;;;;;13.80;94.38;100321.88;5016829;28;20212;-82
2022/10/14 04:04:02;;;;;;;16.27;14.87;;;;;;;13.81;94.57;100315.69;5017438;28;20205;-80
2022/10/14 04:06:30;;;;;;;14.83;13.63;;;;;;;13.81;94.16;100322.72;5017322;28;20233;-81
2022/10/14 04:08:56;;;;;;;15.43;13.93;;;;;;;13.77;94.01;100323.75;5017504;28;20216;-83
2022/10/14 04:11:22;;;;;;;16.23;14.80;;;;;;;13.78;93.86;100326.31;5016922;28;20209;-82
2022/10/14 04:13:50;;;;;;;15.00;13.57;;;;;;;13.74;93.96;100324.69;5020603;28;20225;-82
2022/10/14 04:16:19;;;;;;;14.30;13.20;;;;;;;13.75;94.18;100326.41;5007758;28;20236;-82
2022/10/14 04:18:45;;;;;;;15.80;14.40;;;;;;;13.64;94.58;100310.19;5006609;28;20212;-84
2022/10/14 04:21:12;;;;;;;14.53;13.00;;;;;;;13.68;94.39;100317.03;5007185;28;20201;-83
2022/10/14 04:23:39;;;;;;;15.53;12.23;;;;;;;13.67;94.52;100312.69;5015289;28;20578;-82
2022/10/14 04:26:06;;;;;;;13.77;12.47;;;;;;;13.68;94.74;100307.41;5036378;28;20217;-83
2022/10/14 04:28:34;;;;;;;15.23;13.03;;;;;;;13.69;94.56;100310.88;5036281;28;20215;-83
2022/10/14 04:31:02;;;;;;;14.40;11.60;;;;;;;13.63;95.05;100308.47;5035680;28;20201;-81
2022/10/14 04:33:28;;;;;;;13.10;11.40;;;;;;;13.61;95.31;100310.28;5035923;28;20225;-83
2022/10/14 04:35:58;;;;;;;13.87;11.90;;;;;;;13.60;95.41;100304.19;5036294;28;20205;-83
2022/10/14 04:38:25;;;;;;;12.87;11.03;;;;;;;13.59;95.28;100309.47;5035392;28;20599;-83
2022/10/14 04:40:51;;;;;;;11.43;10.47;;;;;;;13.61;95.50;100294.53;5035603;28;20210;-82
2022/10/14 04:43:18;;;;;;;11.37;10.23;;;;;;;13.63;95.66;100293.56;5030882;28;20236;-81
2022/10/14 04:45:45;;;;;;;12.00;10.67;;;;;;;13.65;95.83;100290.91;5035703;28;20657;-83
2022/10/14 04:48:13;;;;;;;14.47;11.23;;;;;;;13.64;95.58;100295.31;5037235;28;20225;-82
2022/10/14 04:50:39;;;;;;;12.67;11.37;;;;;;;13.66;95.58;100290.84;5030142;28;20212;-83
2022/10/14 04:53:06;;;;;;;14.10;12.77;;;;;;;13.66;95.34;100300.50;5041098;28;20233;-85
2022/10/14 04:55:32;;;;;;;12.87;11.77;;;;;;;13.67;95.10;100302.19;5039231;28;20200;-82
2022/10/14 04:57:59;;;;;;;13.67;12.30;;;;;;;13.63;95.37;100309.31;5034286;28;20200;-82
2022/10/14 05:00:25;;;;;;;11.57;10.30;;;;;;;13.64;95.71;100307.56;5040301;28;20206;-84
2022/10/14 05:02:52;;;;;;;14.20;12.70;;;;;;;13.59;95.57;100299.84;5040675;28;20221;-82
2022/10/14 05:05:20;;;;;;;15.33;13.97;;;;;;;13.65;95.04;100298.78;5034829;28;20288;-83
2022/10/14 05:07:46;;;;;;;16.83;15.13;;;;;;;13.67;94.97;100294.34;5041136;28;20229;-83
2022/10/14 05:10:13;;;;;;;17.47;15.80;;;;;;;13.67;94.88;100299.56;5041150;28;20204;-82
2022/10/14 05:12:39;;;;;;;14.93;13.53;;;;;;;13.65;94.74;100301.41;5040308;28;20225;-84
2022/10/14 05:15:06;;;;;;;15.67;14.27;;;;;;;13.65;94.86;100304.03;5040740;28;20212;-82
2022/10/14 05:17:33;;;;;;;15.50;14.13;;;;;;;13.58;94.80;100300.75;5040482;28;20212;-81
2022/10/14 05:19:59;;;;;;;14.23;12.73;;;;;;;13.55;94.65;100300.00;5039480;28;20204;-83
2022/10/14 05:22:27;;;;;;;13.67;11.37;;;;;;;13.50;94.35;100293.16;5039684;28;20225;-81
2022/10/14 05:24:53;;;;;;;12.23;10.90;;;;;;;13.47;94.43;100298.47;5039741;28;20216;-83
2022/10/14 05:27:20;;;;;;;11.43;9.83;;;;;;;13.39;93.99;100311.00;5040311;28;20223;-83
2022/10/14 05:29:47;;;;;;;12.10;9.57;;;;;;;13.36;93.95;100316.34;5039984;28;20235;-83
2022/10/14 05:32:14;;;;;;;12.27;10.97;;;;;;;13.30;93.68;100317.41;5038498;28;20251;-82
2022/10/14 05:34:40;;;;;;;12.27;10.40;;;;;;;13.29;93.63;100322.66;5040745;28;20204;-83
2022/10/14 05:37:07;;;;;;;12.37;10.57;;;;;;;13.24;93.69;100320.19;5039655;28;20215;-82
2022/10/14 05:39:34;;;;;;;16.33;14.67;;;;;;;13.18;94.12;100314.25;5039104;28;20710;-83
2022/10/14 05:42:01;;;;;;;16.53;13.90;;;;;;;13.19;93.97;100316.84;5039420;28;20229;-82
2022/10/14 05:44:27;;;;;;;16.07;14.60;;;;;;;13.13;94.57;100306.56;5040727;28;20234;-83
2022/10/14 05:46:54;;;;;;;17.20;15.37;;;;;;;13.11;94.22;100298.72;5040716;28;20233;-81
2022/10/14 05:49:20;;;;;;;16.20;14.50;;;;;;;13.07;94.84;100307.59;5041287;28;20690;-81
2022/10/14 05:51:47;;;;;;;16.97;15.17;;;;;;;13.17;95.67;100283.72;5041216;28;20210;-82
2022/10/14 05:54:13;;;;;;;17.83;16.20;;;;;;;13.20;97.03;100253.03;5041470;28;20202;-81
2022/10/14 05:56:41;;;;;;;15.67;14.23;;;;;;;13.20;96.70;100246.91;5042107;28;20204;-81
2022/10/14 05:59:09;;;;;;;21.47;16.80;;;;;;;13.02;98.02;100230.03;5041366;28;20216;-81
2022/10/14 06:01:37;;;;;;;27.40;19.50;;;;;;;13.09;99.75;100202.75;5040659;28;20204;-84
2022/10/14 06:04:04;;;;;;;26.80;20.73;;;;;;;13.23;100.00;100169.06;5034477;28;20207;-83
2022/10/14 06:06:30;;;;;;;23.55;21.10;;;;;;;13.34;100.00;100165.22;5039501;28;20203;-82
2022/10/14 06:08:56;;;;;;;21.03;18.87;;;;;;;13.43;100.00;100184.13;5040001;28;20199;-84
2022/10/14 06:11:23;;;;;;;25.80;20.03;;;;;;;13.48;98.60;100216.28;5040377;28;20235;-84
2022/10/14 06:13:52;;;;;;;24.23;19.67;;;;;;;13.59;100.00;100200.19;5040147;28;20229;-82
2022/10/14 06:16:19;;;;;;;20.67;18.60;;;;;;;13.62;98.94;100212.34;5039775;28;20224;-82
2022/10/14 06:18:45;;;;;;;22.07;19.77;;;;;;;13.60;97.35;100241.25;5039826;28;20208;-83
2022/10/14 06:21:14;;;;;;;20.10;17.90;;;;;;;13.65;97.27;100254.19;5039526;28;20209;-80
2022/10/14 06:23:40;;;;;;;21.60;19.30;;;;;;;13.61;97.20;100261.28;5036397;28;20220;-81
2022/10/14 06:26:08;;;;;;;20.40;18.47;;;;;;;13.59;96.76;100275.38;5038045;28;20203;-81
2022/10/14 06:28:35;;;;;;;21.33;19.10;;;;;;;13.60;95.98;100285.81;5036208;28;20226;-80
2022/10/14 06:31:03;;;;;;;21.00;18.77;;;;;;;13.62;95.50;100304.16;5039047;28;20200;-83
2022/10/14 06:33:30;;;;;;;20.20;18.13;;;;;;;13.64;95.24;100311.03;5037945;28;20225;-80
2022/10/14 06:35:57;;;;;;;18.47;16.87;;;;;;;13.61;95.72;100312.91;5038471;28;20211;-83
2022/10/14 06:38:23;;;;;;;20.00;18.10;;;;;;;13.63;95.62;100311.09;5040194;28;20234;-81
2022/10/14 06:40:50;;;;;;;18.97;17.10;;;;;;;13.61;95.54;100315.53;5040637;28;20214;-80
2022/10/14 06:43:17;;;;;;;20.30;17.73;;;;;;;13.56;95.65;100312.19;5039306;28;20236;-81
2022/10/14 06:45:43;;;;;;;20.10;17.43;;;;;;;13.53;95.60;100305.28;5040747;28;20219;-81
2022/10/14 06:48:11;;;;;;;23.93;16.90;;;;;;;13.54;95.59;100304.41;5041674;28;20237;-80
2022/10/14 06:50:38;;;;;;;16.70;12.27;;;;;;;13.51;96.21;100286.97;5042364;28;20214;-80
2022/10/14 06:53:04;;;;;;;16.07;13.87;;;;;;;13.54;96.44;100278.16;5042713;28;20229;-79
2022/10/14 06:55:31;;;;;;;22.43;14.30;;;;;;;13.56;95.61;100280.72;5042124;28;20212;-81
2022/10/14 06:57:57;;;;;;;13.97;12.40;;;;;;;13.44;96.29;100285.47;5042601;28;20217;-80
2022/10/14 07:00:24;;;;;;;13.93;12.17;;;;;;;13.45;96.74;100271.44;5041592;28;20207;-78
2022/10/14 07:02:50;;;;;;;20.13;13.67;;;;;;;13.50;96.20;100272.16;5041312;28;20314;-80
2022/10/14 07:05:18;;;;;;;22.27;15.87;;;;;;;13.55;96.25;100281.66;5041849;28;20235;-81
2022/10/14 07:07:45;;;;;;;18.57;15.27;;;;;;;13.54;96.43;100279.91;5041581;28;20228;-80
2022/10/14 07:10:11;;;;;;;18.80;14.10;;;;;;;13.60;96.76;100279.72;5042326;28;20226;-79
2022/10/14 07:12:37;;;;;;;12.73;11.53;;;;;;;13.62;96.46;100270.91;5042163;28;20226;-80
2022/10/14 07:15:05;;;;;;;13.10;11.73;;;;;;;13.65;96.55;100275.16;5041382;28;20216;-80
2022/10/14 07:17:32;;;;;;;17.23;13.03;;;;;;;13.64;96.44;100276.94;5040913;28;20208;-80
2022/10/14 07:19:58;;;;;;;16.67;15.07;;;;;;;13.59;96.35;100278.84;5040304;28;20718;-80
2022/10/14 07:22:26;;;;;;;16.13;14.43;;;;;;;13.67;96.01;100289.09;5042212;28;20236;-79
2022/10/14 07:24:52;;;;;;;15.43;14.13;;;;;;;13.72;96.34;100288.94;5041495;28;20298;-81
2022/10/14 07:27:20;;;;;;;16.50;15.00;;;;;;;13.74;96.33;100284.50;5041950;28;20223;-81
2022/10/14 07:29:46;;;;;;;15.80;14.23;;;;;;;13.81;96.28;100288.63;5041833;28;20214;-78
2022/10/14 07:32:13;;;;;;;16.23;14.53;;;;;;;13.85;96.30;100295.47;5041911;28;20232;-81
2022/10/14 07:34:39;;;;;;;16.33;14.80;;;;;;;13.77;96.04;100284.38;5041630;28;20204;-82
2022/10/14 07:37:05;;;;;;;12.70;11.60;;;;;;;13.82;96.42;100275.44;5041950;28;20212;-82
2022/10/14 07:39:33;;;;;;;14.47;12.63;;;;;;;13.90;96.46;100272.56;5041929;28;20213;-80
2022/10/14 07:42:00;;;;;;;14.23;11.63;;;;;;;13.89;96.75;100269.09;5040763;28;20232;-81
2022/10/14 07:44:26;;;;;;;16.27;12.23;;;;;;;13.93;97.45;100246.19;5042125;28;20208;-81
2022/10/14 07:46:53;;;;;;;12.67;11.63;;;;;;;14.01;97.05;100251.16;5042072;28;20644;-80
2022/10/14 07:49:21;;;;;;;13.00;11.87;;;;;;;14.08;95.70;100279.75;5041367;28;20239;-81
2022/10/14 07:51:49;;;;;;;11.43;10.40;;;;;;;14.00;94.68;100310.69;5040647;28;20211;-80
2022/10/14 07:54:18;;;;;;;10.57;9.67;;;;;;;14.03;93.74;100334.22;5040722;28;20221;-81
2022/10/14 07:56:48;;;;;;;10.57;9.77;;;;;;;14.08;93.33;100352.41;5040181;28;20215;-80
2022/10/14 07:59:14;;;;;;;9.77;8.97;;;;;;;14.17;93.09;100369.59;5040870;28;20208;-81
2022/10/14 08:01:41;;;;;;;9.73;8.87;;;;;;;14.09;92.31;100382.97;5039697;28;20213;-79
2022/10/14 08:04:08;;;;;;;8.77;8.07;;;;;;;14.18;92.00;100402.81;5040196;28;20211;-80
2022/10/14 08:06:34;;;;;;;10.70;9.67;;;;;;;14.20;92.30;100401.84;5040435;28;20236;-81
2022/10/14 08:09:01;;;;;;;8.43;7.73;;;;;;;14.20;93.12;100385.25;5040582;28;20237;-80
2022/10/14 08:11:28;;;;;;;10.00;9.10;;;;;;;14.21;92.53;100387.84;5039856;28;20211;-79
2022/10/14 08:13:58;;;;;;;11.03;9.10;;;;;;;14.29;92.71;100382.28;5040820;28;20220;-79
2022/10/14 08:16:26;;;;;;;8.77;7.93;;;;;;;14.26;91.92;100400.78;5040115;28;20215;-81
2022/10/14 08:18:55;;;;;;;8.40;7.60;;;;;;;14.27;92.46;100378.84;5039712;28;20201;-80
2022/10/14 08:21:22;;;;;;;8.20;7.60;;;;;;;14.11;91.32;100412.66;5039559;28;20675;-79
2022/10/14 08:23:48;;;;;;;7.20;6.60;;;;;;;14.15;91.36;100421.28;5040109;28;20225;-80
2022/10/14 08:26:20;;;;;;;7.40;6.90;;;;;;;14.20;91.72;100403.63;5039657;28;20205;-81
2022/10/14 08:28:47;;;;;;;8.00;6.80;;;;;;;14.20;91.22;100411.50;5041897;28;20808;-80
2022/10/14 08:31:16;;;;;;;7.57;6.97;;;;;;;14.27;90.70;100408.63;5043676;28;20208;-80
2022/10/14 08:33:42;;;;;;;10.70;6.50;;;;;;;14.25;90.30;100422.69;5043603;28;20732;-79
2022/10/14 08:36:09;;;;;;;7.13;6.63;;;;;;;14.31;90.55;100414.63;5044460;28;20200;-80
2022/10/14 08:38:36;;;;;;;6.77;6.17;;;;;;;14.27;90.38;100423.50;5043703;28;20213;-79
2022/10/14 08:41:16;;;;;;;6.87;6.27;;;;;;;14.33;90.83;100406.66;5041097;28;20232;-81
2022/10/14 08:43:49;;;;;;;6.87;6.37;;;;;;;14.46;90.87;100390.44;5031523;28;20606;-83
2022/10/14 08:46:24;;;;;;;6.20;5.70;;;;;;;14.47;89.39;100423.69;5018595;28;20578;-83
2022/10/14 08:48:55;;;;;;;6.50;5.90;;;;;;;14.61;89.28;100425.00;5018900;28;20255;-82
2022/10/14 08:51:22;;;;;;;5.77;5.37;;;;;;;14.44;87.82;100460.53;5018092;28;20216;-81
2022/10/14 08:53:54;;;;;;;5.20;4.77;;;;;;;14.55;88.00;100469.81;5018495;28;20254;-81
2022/10/14 08:56:22;;;;;;;4.63;4.33;;;;;;;14.61;87.66;100465.25;5018162;28;20212;-82
2022/10/14 08:58:51;;;;;;;5.40;4.90;;;;;;;14.67;88.03;100461.56;5021895;28;20195;-81
2022/10/14 09:01:25;;;;;;;5.60;4.47;;;;;;;14.57;87.85;100471.53;5037181;28;20196;-81
2022/10/14 09:03:56;;;;;;;4.23;3.93;;;;;;;14.59;87.92;100461.81;5037965;28;20215;-84
2022/10/14 09:06:26;;;;;;;4.57;4.27;;;;;;;14.63;87.71;100455.53;5037717;28;20212;-81
2022/10/14 09:08:56;;;;;;;4.23;3.93;;;;;;;14.67;86.94;100458.94;5038241;28;20239;-81
2022/10/14 09:11:24;;;;;;;4.00;3.70;;;;;;;14.67;86.88;100474.69;5037937;28;20217;-82
2022/10/14 09:13:52;;;;;;;4.33;3.93;;;;;;;14.57;86.34;100489.03;5037211;28;20286;-83
2022/10/14 09:16:22;;;;;;;4.27;3.97;;;;;;;14.62;86.36;100485.34;5038135;28;20201;-81
2022/10/14 09:18:52;;;;;;;3.93;3.63;;;;;;;14.75;86.74;100469.16;5037870;28;20205;-83
2022/10/14 09:21:26;;;;;;;4.30;3.90;;;;;;;14.73;86.25;100497.22;5038260;28;20216;-83
2022/10/14 09:23:58;;;;;;;3.97;3.67;;;;;;;14.77;86.58;100477.84;5038097;28;20278;-83
2022/10/14 09:26:35;;;;;;;3.43;3.13;;;;;;;14.77;86.38;100478.69;5038419;28;20205;-81
2022/10/14 09:29:01;;;;;;;3.80;3.50;;;;;;;14.96;87.60;100449.09;5037845;28;20602;-82
2022/10/14 09:31:30;;;;;;;3.23;3.03;;;;;;;15.09;87.20;100450.38;5037524;28;20217;-84
2022/10/14 09:33:56;;;;;;;2.80;2.60;;;;;;;15.13;85.51;100486.16;5038070;28;20230;-82
2022/10/14 09:36:23;;;;;;;2.70;2.50;;;;;;;15.16;85.46;100501.81;5039210;28;20595;-83
2022/10/14 09:38:51;;;;;;;3.10;2.83;;;;;;;15.23;85.72;100497.19;5038010;28;20208;-83
2022/10/14 09:41:21;;;;;;;2.40;2.30;;;;;;;15.32;84.97;100514.38;5038363;28;20299;-83
2022/10/14 09:44:17;;;;;;;2.77;2.57;;;;;;;15.28;84.28;100522.41;5039071;28;20641;-83
2022/10/14 09:46:47;;;;;;;2.70;2.50;;;;;;;15.18;83.13;100544.72;5039377;28;20635;-81
2022/10/14 09:49:18;;;;;;;2.57;2.37;;;;;;;15.29;83.75;100544.28;5039310;28;20302;-80
2022/10/14 09:51:45;;;;;;;2.57;2.47;;;;;;;15.28;83.60;100546.09;5038901;28;20212;-83
2022/10/14 09:54:25;;;;;;;3.13;2.73;;;;;;;15.20;83.61;100540.25;5039610;28;20213;-82
2022/10/14 09:57:02;;;;;;;3.13;2.90;;;;;;;15.21;83.69;100531.44;5039369;28;20208;-83
2022/10/14 09:59:29;;;;;;;3.47;3.17;;;;;;;15.21;83.13;100534.06;5039371;28;20205;-83
2022/10/14 10:01:59;;;;;;;3.10;2.80;;;;;;;15.16;82.45;100546.50;5039292;28;20236;-84
2022/10/14 10:04:32;;;;;;;2.97;2.77;;;;;;;15.28;82.86;100547.81;5039168;28;20211;-83
2022/10/14 10:07:01;;;;;;;3.27;3.00;;;;;;;15.32;82.90;100552.09;5039447;28;20206;-83
2022/10/14 10:09:28;;;;;;;2.90;2.60;;;;;;;15.42;83.29;100519.25;5040055;28;20262;-84
2022/10/14 10:11:55;;;;;;;3.03;2.83;;;;;;;15.56;83.10;100512.59;5039213;28;20239;-84
2022/10/14 10:14:24;;;;;;;2.57;2.47;;;;;;;15.58;82.05;100547.59;5039264;28;20208;-84
2022/10/14 10:16:51;;;;;;;3.17;2.20;;;;;;;15.64;82.40;100537.72;5039460;28;20208;-84
2022/10/14 10:19:27;;;;;;;2.83;2.63;;;;;;;15.75;81.53;100545.22;5039408;28;20213;-85
2022/10/14 10:21:54;;;;;;;2.00;1.90;;;;;;;15.80;81.02;100560.84;5038935;28;20208;-84
2022/10/14 10:24:23;;;;;;;2.40;2.30;;;;;;;15.68;79.80;100589.31;5039331;28;20211;-82
2022/10/14 10:26:50;;;;;;;2.33;2.20;;;;;;;15.43;80.41;100596.41;5039567;28;20694;-82
2022/10/14 10:29:24;;;;;;;2.43;2.23;;;;;;;15.40;80.80;100578.09;5039982;28;20232;-84
2022/10/14 10:32:00;;;;;;;2.53;2.30;;;;;;;15.56;81.13;100558.22;5039646;28;20215;-84
2022/10/14 10:34:59;;;;;;;3.03;1.90;;;;;;;15.69;81.30;100521.75;5039673;28;20275;-82
2022/10/14 10:37:28;;;;;;;2.40;2.30;;;;;;;15.75;80.27;100547.00;5038946;28;20698;-80
2022/10/14 10:40:17;;;;;;;1.83;1.73;;;;;;;15.72;80.55;100555.84;5053941;28;20699;-79
2022/10/14 10:42:52;;;;;;;2.00;1.90;;;;;;;15.88;80.80;100543.84;5053070;28;20235;-81
2022/10/14 10:45:34;;;;;;;2.00;1.90;;;;;;;15.97;79.68;100542.59;5051176;28;20220;-81
2022/10/14 10:48:09;;;;;;;1.70;1.60;;;;;;;16.15;79.51;100553.31;5052897;28;20272;-82
2022/10/14 10:50:46;;;;;;;1.77;1.67;;;;;;;16.15;79.34;100543.63;5040032;28;20215;-79
2022/10/14 10:53:39;;;;;;;1.93;1.83;;;;;;;16.21;79.11;100576.78;5048896;22;20223;-78
2022/10/14 10:56:17;;;;;;;2.30;2.10;;;;;;;16.27;79.09;100572.13;4997243;28;20220;-79
2022/10/14 10:58:58;;;;;;;2.40;2.20;;;;;;;16.24;79.46;100559.06;4999286;28;20212;-80
2022/10/14 11:01:36;;;;;;;2.17;2.07;;;;;;;16.36;79.78;100536.63;4999737;28;20222;-78
2022/10/14 11:04:21;;;;;;;1.60;1.40;;;;;;;16.40;78.31;100567.22;4999668;28;20258;-80
2022/10/14 11:12:49;;;;;;;1.43;1.20;;;;;;;16.51;76.70;100595.78;4998838;28;20649;-80
2022/10/14 11:15:29;;;;;;;1.80;1.67;;;;;;;16.56;76.98;100609.59;4999310;28;20209;-80
2022/10/14 11:18:01;;;;;;;1.30;1.20;;;;;;;16.46;76.15;100618.81;4999356;28;20703;-78
2022/10/14 11:20:38;;;;;;;1.00;1.00;;;;;;;16.41;75.33;100621.63;4998949;28;20221;-81
2022/10/14 11:23:36;;;;;;;1.30;1.20;;;;;;;16.42;76.81;100614.56;4998827;28;20233;-79
2022/10/14 11:26:13;;;;;;;2.33;1.00;;;;;;;16.54;77.88;100577.19;4998937;28;20233;-79
2022/10/14 11:28:47;;;;;;;1.00;1.00;;;;;;;16.53;76.83;100567.56;4998317;28;20703;-80
2022/10/14 11:31:27;;;;;;;1.00;1.00;;;;;;;16.61;77.28;100565.47;4998047;28;20211;-80